Time;durP1;ratioP1;P1;durP2;ratioP2;P2;SDS_P1;SDS_P2;PMS_P1;PMS_P2;Temp;Humidity;BMP_temperature;BMP_pressure;BME280_temperature;BME280_humidity;BME280_pressure;Samples;Min_cycle;Max_cycle;Signal;HPM_P1;HPM_P2
2022/06/09 00:00:22;;;;;;;4.50;3.33;;;;;;;19.03;71.92;94086.00;4174356;28;20049;-47
2022/06/09 00:02:24;;;;;;;8.40;3.50;;;;;;;19.02;71.70;94084.41;4175647;28;20056;-52
2022/06/09 00:04:30;;;;;;;4.80;3.22;;;;;;;18.96;71.18;94083.44;4172730;28;20060;-52
2022/06/09 00:06:36;;;;;;;4.00;3.40;;;;;;;18.99;71.29;94087.50;4164788;28;20092;-53
2022/06/09 00:08:40;;;;;;;6.22;3.53;;;;;;;19.00;71.21;94079.31;4166809;28;20042;-51
2022/06/09 00:10:43;;;;;;;;;;;;;;;18.98;71.37;94077.94;4157837;28;20037;-50
2022/06/09 00:12:45;;;;;;;6.05;2.97;;;;;;;18.99;71.28;94088.31;4159576;28;20385;-50
2022/06/09 00:14:46;;;;;;;4.13;2.47;;;;;;;19.02;70.97;94087.06;4170506;28;20494;-52
2022/06/09 00:16:48;;;;;;;3.45;2.33;;;;;;;18.96;70.63;94078.13;4158840;28;20081;-50
2022/06/09 00:18:50;;;;;;;4.18;2.72;;;;;;;18.97;70.48;94084.25;4161128;28;20054;-55
2022/06/09 00:20:51;;;;;;;3.60;2.78;;;;;;;18.98;70.11;94080.56;4173484;28;20041;-54
2022/06/09 00:22:53;;;;;;;5.82;4.20;;;;;;;18.96;71.17;94083.44;4163141;28;20053;-49
2022/06/09 00:24:56;;;;;;;6.75;5.18;;;;;;;18.99;71.63;94083.00;4170545;28;20103;-49
2022/06/09 00:26:57;;;;;;;9.05;5.00;;;;;;;19.02;71.48;94071.94;4164368;28;20079;-51
2022/06/09 00:29:00;;;;;;;7.53;5.57;;;;;;;18.99;71.66;94068.91;4168926;28;20053;-53
2022/06/09 00:31:02;;;;;;;10.35;5.60;;;;;;;18.97;71.71;94068.31;4166789;28;20057;-53
2022/06/09 00:33:04;;;;;;;7.65;5.70;;;;;;;18.97;72.03;94068.31;4162963;28;20057;-53
2022/06/09 00:35:07;;;;;;;7.38;5.55;;;;;;;18.93;72.10;94068.00;4172351;28;20489;-52
2022/06/09 00:37:08;;;;;;;9.43;5.88;;;;;;;18.89;72.24;94064.16;4168734;28;21593;-49
2022/06/09 00:39:10;;;;;;;8.38;6.13;;;;;;;18.63;71.98;94062.66;4159218;28;20050;-51
2022/06/09 00:41:12;;;;;;;8.00;6.43;;;;;;;18.41;72.94;94071.09;4160858;28;20111;-50
2022/06/09 00:43:14;;;;;;;8.00;5.75;;;;;;;18.41;73.58;94065.78;4168887;28;20107;-50
2022/06/09 00:45:34;;;;;;;11.13;6.43;;;;;;;18.17;74.13;94066.66;4161135;28;20049;-53
2022/06/09 00:47:36;;;;;;;8.80;6.15;;;;;;;17.82;74.77;94061.94;4163773;28;20131;-52
2022/06/09 00:49:50;;;;;;;8.55;6.43;;;;;;;17.61;76.66;94061.28;4167426;28;20167;-53
2022/06/09 00:51:54;;;;;;;;;;;;;;;17.52;77.12;94061.78;4158273;28;20061;-52
2022/06/09 00:54:00;;;;;;;10.40;6.00;;;;;;;17.55;77.38;94058.69;4170947;28;20285;-50
2022/06/09 00:56:02;;;;;;;7.70;5.75;;;;;;;17.66;77.60;94054.53;4158103;28;20053;-53
2022/06/09 00:58:15;;;;;;;9.63;6.63;;;;;;;17.76;76.80;94053.00;4159117;28;20501;-52
2022/06/09 01:00:24;;;;;;;7.45;6.07;;;;;;;17.72;76.82;94053.66;4156710;28;20045;-52
2022/06/09 01:02:25;;;;;;;8.50;6.60;;;;;;;17.79;76.88;94062.38;4156697;28;20478;-51
2022/06/09 01:04:30;;;;;;;7.88;6.03;;;;;;;17.91;76.83;94052.66;4159150;28;20057;-50
2022/06/09 01:06:35;;;;;;;11.70;6.00;;;;;;;18.03;76.69;94051.97;4163147;28;20049;-50
2022/06/09 01:08:44;;;;;;;7.47;6.00;;;;;;;18.12;75.78;94055.94;4174440;28;20098;-52
2022/06/09 01:10:46;;;;;;;7.60;5.55;;;;;;;18.18;75.60;94050.53;4173892;28;20107;-48
2022/06/09 01:12:49;;;;;;;9.48;5.80;;;;;;;18.28;74.95;94054.50;4174034;28;20057;-52
2022/06/09 01:15:06;;;;;;;10.20;6.50;;;;;;;18.30;74.67;94053.25;4166892;28;20500;-51
2022/06/09 01:17:36;;;;;;;8.80;6.60;;;;;;;18.32;74.58;94048.53;4157431;28;20126;-50
2022/06/09 01:19:50;;;;;;;8.52;6.80;;;;;;;18.40;74.16;94055.38;4170516;28;20095;-51
2022/06/09 01:22:13;;;;;;;10.48;6.72;;;;;;;18.50;73.66;94054.84;4177625;28;20061;-53
2022/06/09 01:24:52;;;;;;;8.88;6.82;;;;;;;18.44;73.51;94053.91;4176813;28;20087;-50
2022/06/09 01:27:07;;;;;;;9.00;7.00;;;;;;;18.36;74.09;94047.06;4173248;28;20276;-50
2022/06/09 01:29:21;;;;;;;13.60;7.57;;;;;;;18.29;73.77;94051.66;4161785;28;20440;-50
2022/06/09 01:31:45;;;;;;;9.68;6.85;;;;;;;18.28;74.33;94042.06;4171429;28;20483;-52
2022/06/09 01:33:59;;;;;;;13.52;7.80;;;;;;;18.08;74.75;94041.50;4165572;28;20049;-49
2022/06/09 01:36:19;;;;;;;9.77;7.68;;;;;;;18.05;75.30;94040.09;4165202;28;20049;-52
2022/06/09 01:38:21;;;;;;;11.27;7.85;;;;;;;17.83;75.93;94041.56;4164505;28;20053;-50
2022/06/09 01:40:23;;;;;;;11.43;8.20;;;;;;;17.66;76.71;94043.94;4169641;28;20045;-50
2022/06/09 01:42:38;;;;;;;11.00;8.38;;;;;;;17.20;77.97;94046.75;4169521;28;20052;-55
2022/06/09 01:44:39;;;;;;;13.10;7.97;;;;;;;17.15;79.30;94028.06;4168294;28;20057;-50
2022/06/09 01:46:43;;;;;;;10.85;8.68;;;;;;;17.11;79.30;94034.03;4152539;28;20108;-50
2022/06/09 01:48:44;;;;;;;;;;;;;;;16.99;80.13;94037.38;4171120;28;20053;-51
2022/06/09 01:51:09;;;;;;;12.40;9.13;;;;;;;16.76;81.08;94040.53;4173222;28;19943;-51
2022/06/09 01:53:17;;;;;;;12.52;9.90;;;;;;;16.69;81.64;94047.72;4162617;28;20464;-51
2022/06/09 01:55:20;;;;;;;16.33;10.45;;;;;;;16.67;82.25;94044.47;4169087;28;20086;-53
2022/06/09 01:57:28;;;;;;;15.02;11.43;;;;;;;16.87;82.18;94043.56;4169347;28;20563;-51
2022/06/09 01:59:34;;;;;;;16.27;11.45;;;;;;;16.86;81.22;94042.72;4176086;28;20095;-52
2022/06/09 02:01:40;;;;;;;16.05;11.10;;;;;;;17.04;81.13;94038.56;4161978;28;20087;-55
2022/06/09 02:03:44;;;;;;;13.20;9.25;;;;;;;17.22;80.18;94033.31;4162732;28;20470;-52
2022/06/09 02:05:50;;;;;;;13.75;9.73;;;;;;;17.39;78.96;94039.69;4166185;28;20079;-50
2022/06/09 02:07:54;;;;;;;14.35;9.02;;;;;;;17.53;77.88;94037.75;4166043;28;20049;-53
2022/06/09 02:09:55;;;;;;;13.52;8.80;;;;;;;17.63;77.51;94047.81;4158183;28;20045;-52
2022/06/09 02:12:02;;;;;;;11.07;8.55;;;;;;;17.73;77.08;94042.03;4160170;28;20049;-53
2022/06/09 02:14:04;;;;;;;14.60;8.98;;;;;;;17.85;76.49;94039.50;4166266;28;20049;-52
2022/06/09 02:16:09;;;;;;;12.55;9.63;;;;;;;17.94;76.09;94038.16;4173583;28;20356;-53
2022/06/09 02:18:20;;;;;;;16.52;10.60;;;;;;;17.98;75.59;94040.19;4175968;28;20057;-51
2022/06/09 02:20:23;;;;;;;13.07;8.75;;;;;;;18.06;75.40;94040.91;4177028;28;20513;-52
2022/06/09 02:22:25;;;;;;;11.90;9.57;;;;;;;18.09;74.80;94035.97;4174495;28;20083;-50
2022/06/09 02:24:27;;;;;;;11.05;8.40;;;;;;;18.12;74.50;94042.69;4176078;28;20248;-52
2022/06/09 02:26:30;;;;;;;12.27;8.70;;;;;;;18.17;74.69;94046.25;4176909;28;20061;-55
2022/06/09 02:28:32;;;;;;;14.55;9.45;;;;;;;18.23;74.27;94046.44;4175766;28;20053;-53
2022/06/09 02:30:35;;;;;;;12.50;10.13;;;;;;;18.23;73.79;94049.06;4162091;28;20319;-49
2022/06/09 02:32:50;;;;;;;13.30;8.55;;;;;;;18.22;74.01;94056.22;4163677;28;20049;-52
2022/06/09 02:34:52;;;;;;;14.10;8.95;;;;;;;18.26;73.64;94057.38;4169703;28;20049;-53
2022/06/09 02:36:54;;;;;;;12.82;9.32;;;;;;;18.27;73.35;94048.41;4159891;28;20060;-54
2022/06/09 02:38:55;;;;;;;12.45;9.65;;;;;;;18.26;73.15;94057.38;4159016;28;20041;-52
2022/06/09 02:40:57;;;;;;;13.20;8.75;;;;;;;18.26;73.34;94062.69;4164111;28;20052;-51
2022/06/09 02:43:00;;;;;;;11.30;8.38;;;;;;;18.17;72.96;94062.16;4176231;28;20053;-50
2022/06/09 02:45:03;;;;;;;;;;;;;;;18.07;73.59;94061.91;4167054;28;20434;-52
2022/06/09 02:47:04;;;;;;;12.52;9.30;;;;;;;18.07;74.13;94064.53;4159821;28;20377;-51
2022/06/09 02:49:06;;;;;;;13.38;9.88;;;;;;;18.08;74.22;94068.81;4169761;28;20060;-52
2022/06/09 02:51:40;;;;;;;15.18;11.55;;;;;;;18.17;74.21;94059.50;4172961;28;20048;-51
2022/06/09 02:53:41;;;;;;;13.00;10.45;;;;;;;18.20;74.05;94056.44;4165195;28;20640;-52
2022/06/09 02:55:43;;;;;;;14.07;11.32;;;;;;;18.21;74.07;94055.38;4167105;28;20101;-53
2022/06/09 02:57:45;;;;;;;19.70;12.27;;;;;;;18.20;73.52;94058.28;4170032;28;20080;-51
2022/06/09 02:59:47;;;;;;;19.17;14.00;;;;;;;17.97;74.22;94064.25;4158392;28;20198;-51
2022/06/09 03:01:48;;;;;;;15.65;12.30;;;;;;;17.91;74.90;94059.81;4163128;28;20076;-50
2022/06/09 03:03:50;;;;;;;17.83;13.95;;;;;;;17.90;74.96;94064.31;4172431;28;20048;-50
2022/06/09 03:05:52;;;;;;;15.10;12.30;;;;;;;17.79;75.28;94054.41;4164110;28;20122;-47
2022/06/09 03:07:54;;;;;;;17.38;12.70;;;;;;;17.85;75.45;94055.38;4161848;28;20057;-52
2022/06/09 03:09:55;;;;;;;16.08;12.30;;;;;;;17.77;75.43;94059.91;4171188;28;20120;-52
2022/06/09 03:11:57;;;;;;;17.70;13.15;;;;;;;17.79;75.52;94057.06;4163723;28;20053;-53
2022/06/09 03:13:59;;;;;;;18.02;11.05;;;;;;;17.84;75.75;94057.25;4170779;28;20053;-50
2022/06/09 03:16:00;;;;;;;18.67;12.73;;;;;;;17.94;75.25;94060.19;4161226;28;20053;-52
2022/06/09 03:18:02;;;;;;;15.63;12.50;;;;;;;18.04;74.95;94056.22;4172740;28;20130;-53
2022/06/09 03:20:07;;;;;;;17.77;12.48;;;;;;;18.14;74.53;94061.81;4163897;28;20756;-49
2022/06/09 03:22:09;;;;;;;17.27;13.00;;;;;;;18.25;74.12;94058.41;4167736;28;20084;-52
2022/06/09 03:24:11;;;;;;;20.50;12.60;;;;;;;18.29;74.03;94054.28;4169859;28;20126;-49
2022/06/09 03:26:12;;;;;;;20.23;12.77;;;;;;;18.36;73.50;94054.22;4176099;28;20057;-53
2022/06/09 03:28:14;;;;;;;16.38;13.35;;;;;;;18.38;73.44;94060.91;4174689;28;20049;-54
2022/06/09 03:30:17;;;;;;;17.15;12.80;;;;;;;18.30;73.12;94068.34;4169375;28;20103;-50
2022/06/09 03:32:18;;;;;;;16.73;12.95;;;;;;;18.18;73.67;94058.50;4166612;28;20057;-50
2022/06/09 03:34:20;;;;;;;18.55;13.38;;;;;;;17.52;76.31;94064.44;4176181;28;20425;-49
2022/06/09 03:36:22;;;;;;;19.38;14.25;;;;;;;17.22;78.20;94066.94;4162654;28;20184;-50
2022/06/09 03:38:23;;;;;;;18.48;14.63;;;;;;;16.99;78.79;94068.28;4172325;28;20110;-52
2022/06/09 03:40:27;;;;;;;23.95;14.73;;;;;;;16.70;80.47;94062.53;4163722;28;20214;-50
2022/06/09 03:42:28;;;;;;;;;;;;;;;16.78;81.30;94059.66;4159903;28;20184;-56
2022/06/09 03:44:30;;;;;;;21.02;16.25;;;;;;;17.05;81.01;94064.00;4159157;28;20335;-56
2022/06/09 03:46:33;;;;;;;21.67;16.13;;;;;;;17.32;79.73;94059.31;4164889;28;20319;-56
2022/06/09 03:48:35;;;;;;;22.27;16.40;;;;;;;17.59;77.82;94058.06;4169465;28;20462;-55
2022/06/09 03:50:36;;;;;;;20.17;15.05;;;;;;;17.84;76.66;94054.59;4158571;28;20140;-56
2022/06/09 03:52:38;;;;;;;21.50;15.13;;;;;;;18.02;75.54;94064.38;4171366;28;20114;-56
2022/06/09 03:54:40;;;;;;;23.98;16.92;;;;;;;18.17;74.56;94056.06;4174370;28;20439;-57
2022/06/09 03:56:42;;;;;;;22.48;15.52;;;;;;;18.28;73.83;94060.63;4162330;28;20118;-55
2022/06/09 03:58:44;;;;;;;23.80;15.60;;;;;;;18.36;72.98;94057.66;4175564;28;20053;-55
2022/06/09 04:00:46;;;;;;;21.92;15.07;;;;;;;18.37;72.97;94061.16;4174049;28;20408;-56
2022/06/09 04:02:48;;;;;;;20.38;14.07;;;;;;;17.96;73.38;94058.13;4174930;28;20456;-56
2022/06/09 04:04:50;;;;;;;21.27;14.93;;;;;;;17.46;76.22;94065.31;4174884;28;20059;-55
2022/06/09 04:06:52;;;;;;;20.55;14.52;;;;;;;17.45;77.10;94056.56;4176147;28;20049;-55
2022/06/09 04:08:54;;;;;;;23.75;15.48;;;;;;;17.40;77.00;94059.03;4173384;28;20533;-56
2022/06/09 04:10:56;;;;;;;22.23;15.65;;;;;;;17.56;77.49;94058.47;4161831;28;20056;-56
2022/06/09 04:12:58;;;;;;;21.92;15.40;;;;;;;17.69;77.02;94052.25;4158190;28;20103;-54
2022/06/09 04:14:59;;;;;;;26.02;17.20;;;;;;;17.62;76.27;94054.16;4161889;28;20717;-56
2022/06/09 04:17:01;;;;;;;28.85;18.48;;;;;;;17.51;76.95;94054.84;4167924;28;20049;-57
2022/06/09 04:19:07;;;;;;;24.95;16.60;;;;;;;17.16;77.19;94056.19;4166227;28;20064;-55
2022/06/09 04:21:09;;;;;;;28.67;18.23;;;;;;;16.68;79.32;94061.13;4159051;28;20106;-54
2022/06/09 04:23:11;;;;;;;29.42;19.15;;;;;;;16.59;80.28;94060.56;4158316;28;20053;-55
2022/06/09 04:25:13;;;;;;;27.92;19.10;;;;;;;16.69;80.28;94060.94;4163177;28;20053;-55
2022/06/09 04:27:14;;;;;;;27.50;19.85;;;;;;;16.48;80.99;94064.69;4167690;28;20049;-53
2022/06/09 04:29:16;;;;;;;34.30;19.17;;;;;;;16.56;81.32;94053.06;4158691;28;20394;-54
2022/06/09 04:31:18;;;;;;;28.70;18.42;;;;;;;16.77;80.94;94051.91;4156770;28;20058;-55
2022/06/09 04:33:19;;;;;;;27.38;19.92;;;;;;;16.87;79.80;94059.44;4172050;28;20057;-54
2022/06/09 04:35:21;;;;;;;26.02;17.98;;;;;;;16.78;79.10;94064.94;4159029;28;20127;-53
2022/06/09 04:37:59;;;;;;;24.98;17.77;;;;;;;16.79;79.18;94047.22;4166248;28;20049;-57
2022/06/09 04:39:45;;;;;;;26.92;18.58;;;;;;;16.80;78.72;94059.47;4169340;28;20131;-56
2022/06/09 04:41:46;;;;;;;27.77;18.77;;;;;;;16.72;78.53;94052.56;4164357;28;20045;-56
2022/06/09 04:43:49;;;;;;;29.75;18.50;;;;;;;16.56;79.56;94053.06;4174876;28;20056;-55
2022/06/09 04:45:51;;;;;;;28.23;18.55;;;;;;;16.65;79.96;94056.25;4156630;28;20049;-54
2022/06/09 04:47:56;;;;;;;29.30;19.35;;;;;;;16.95;79.66;94056.50;4158385;28;20418;-57
2022/06/09 04:49:57;;;;;;;26.83;18.65;;;;;;;17.26;78.16;94052.22;4170932;28;20095;-56
2022/06/09 04:51:59;;;;;;;28.90;17.25;;;;;;;17.42;76.99;94053.53;4159196;28;20072;-54
2022/06/09 04:54:01;;;;;;;20.70;15.18;;;;;;;17.36;76.00;94052.56;4170203;28;20053;-56
2022/06/09 04:56:03;;;;;;;22.92;16.30;;;;;;;17.55;75.59;94056.88;4166221;28;20053;-55
2022/06/09 04:58:05;;;;;;;25.75;17.23;;;;;;;17.55;75.24;94051.59;4161630;28;20053;-56
2022/06/09 05:00:09;;;;;;;22.10;16.13;;;;;;;17.83;75.48;94055.59;4173786;28;20165;-58
2022/06/09 05:02:11;;;;;;;25.17;16.92;;;;;;;18.15;74.16;94050.97;4167853;28;20045;-57
2022/06/09 05:04:12;;;;;;;23.27;16.85;;;;;;;18.48;72.76;94048.97;4177975;28;20045;-57
2022/06/09 05:06:16;;;;;;;23.13;16.33;;;;;;;18.75;72.10;94055.53;4178211;28;20132;-56
2022/06/09 05:08:18;;;;;;;24.88;17.27;;;;;;;18.85;70.82;94051.56;4171725;28;20443;-55
2022/06/09 05:10:19;;;;;;;23.33;16.73;;;;;;;18.96;69.58;94051.59;4166476;28;20049;-56
2022/06/09 05:12:21;;;;;;;19.73;14.20;;;;;;;19.16;69.14;94053.16;4167468;28;20053;-58
2022/06/09 05:14:23;;;;;;;20.90;15.02;;;;;;;19.19;67.91;94055.38;4162736;28;20155;-57
2022/06/09 05:16:25;;;;;;;18.13;14.40;;;;;;;19.22;67.87;94046.94;4169380;28;20080;-57
2022/06/09 05:18:30;;;;;;;19.75;14.43;;;;;;;19.20;67.99;94049.81;4169808;28;20056;-54
2022/06/09 05:20:31;;;;;;;21.15;15.60;;;;;;;19.18;68.46;94046.56;4169457;28;20053;-54
2022/06/09 05:22:33;;;;;;;24.30;16.08;;;;;;;19.17;68.69;94044.97;4174135;28;20535;-56
2022/06/09 05:24:34;;;;;;;19.20;13.98;;;;;;;19.23;68.54;94045.91;4168037;28;20114;-56
2022/06/09 05:26:36;;;;;;;23.83;14.18;;;;;;;19.31;67.57;94042.09;4172935;28;20049;-57
2022/06/09 05:28:39;;;;;;;21.50;14.43;;;;;;;19.37;66.92;94046.50;4172406;28;20131;-54
2022/06/09 05:30:40;;;;;;;16.60;13.77;;;;;;;19.44;67.03;94044.53;4162308;28;20045;-54
2022/06/09 05:32:42;;;;;;;18.17;14.38;;;;;;;19.53;66.86;94047.66;4172772;28;20053;-56
2022/06/09 05:34:44;;;;;;;18.90;14.48;;;;;;;19.62;66.50;94044.44;4164501;28;20064;-54
2022/06/09 05:36:45;;;;;;;16.48;13.48;;;;;;;19.68;66.17;94048.03;4171560;28;20053;-54
2022/06/09 05:45:51;;;;;;;20.30;12.98;;;;;;;19.98;65.94;94045.25;4159718;28;20053;-57
2022/06/09 05:47:52;;;;;;;17.13;13.55;;;;;;;20.04;66.06;94052.28;4165411;28;20464;-57
2022/06/09 05:49:54;;;;;;;18.35;13.80;;;;;;;20.11;66.33;94054.00;4173870;28;20053;-56
2022/06/09 05:51:56;;;;;;;16.90;13.23;;;;;;;20.21;66.35;94046.25;4167248;28;20057;-57
2022/06/09 05:53:58;;;;;;;24.25;14.63;;;;;;;20.27;65.39;94044.50;4168417;28;20501;-55
2022/06/09 05:55:59;;;;;;;21.98;14.40;;;;;;;20.14;64.05;94037.59;4170829;28;20111;-54
2022/06/09 05:58:01;;;;;;;19.00;13.38;;;;;;;20.02;63.64;94042.94;4162191;28;20053;-56
2022/06/09 06:00:05;;;;;;;19.13;13.05;;;;;;;19.86;64.50;94041.81;4162057;28;20056;-57
2022/06/09 06:02:08;;;;;;;18.77;13.85;;;;;;;19.76;65.19;94041.56;4177383;28;20122;-55
2022/06/09 06:04:10;;;;;;;21.75;14.35;;;;;;;19.67;65.56;94034.97;4168020;28;20103;-54
2022/06/09 06:08:32;;;;;;;16.50;13.63;;;;;;;19.87;65.22;94045.25;4176976;28;20049;-58
2022/06/09 06:10:34;;;;;;;19.83;13.57;;;;;;;20.02;64.71;94042.94;4166592;28;20192;-59
2022/06/09 06:12:35;;;;;;;15.32;12.98;;;;;;;20.11;64.17;94038.06;4173822;28;20052;-59
2022/06/09 06:14:37;;;;;;;17.23;13.50;;;;;;;20.16;64.07;94035.53;4175326;28;20090;-58
2022/06/09 06:16:39;;;;;;;20.67;14.48;;;;;;;20.29;64.66;94032.59;4177156;28;20457;-56
2022/06/09 06:18:41;;;;;;;17.65;12.50;;;;;;;20.30;64.47;94028.88;4169366;28;20084;-55
2022/06/09 06:20:43;;;;;;;15.30;12.38;;;;;;;20.49;64.62;94024.19;4176567;28;20052;-56
2022/06/09 06:22:45;;;;;;;17.83;13.52;;;;;;;20.77;64.19;94023.41;4176403;28;20056;-56
2022/06/09 06:24:46;;;;;;;21.98;13.45;;;;;;;20.96;63.35;94028.53;4175914;28;20111;-55
2022/06/09 06:26:48;;;;;;;17.02;13.25;;;;;;;21.07;62.61;94027.66;4172531;28;20053;-55
2022/06/09 06:28:50;;;;;;;16.70;13.32;;;;;;;21.20;62.95;94022.03;4167739;28;20559;-55
2022/06/09 06:30:52;;;;;;;19.80;13.90;;;;;;;21.34;61.92;94027.84;4174801;28;20048;-54
2022/06/09 06:32:55;;;;;;;19.90;14.60;;;;;;;21.50;61.79;94025.47;4176563;28;20135;-56
2022/06/09 06:34:56;;;;;;;16.92;14.13;;;;;;;21.62;61.11;94026.19;4160738;28;20049;-55
2022/06/09 06:36:58;;;;;;;14.90;12.80;;;;;;;21.74;60.85;94026.09;4160038;28;20103;-55
2022/06/09 06:39:00;;;;;;;16.10;12.77;;;;;;;21.84;60.02;94024.38;4159967;28;20132;-55
2022/06/09 06:41:04;;;;;;;14.18;11.43;;;;;;;21.89;59.04;94026.28;4165178;28;20049;-53
2022/06/09 06:43:06;;;;;;;16.25;11.95;;;;;;;21.61;59.27;94020.03;4162991;28;20057;-56
2022/06/09 06:45:11;;;;;;;20.30;12.95;;;;;;;21.46;60.42;94014.47;4158631;28;20068;-54
2022/06/09 06:47:13;;;;;;;16.95;11.60;;;;;;;21.27;60.72;94017.38;4172870;28;20128;-56
2022/06/09 06:49:15;;;;;;;13.60;11.25;;;;;;;21.31;60.55;94016.88;4163903;28;20076;-53
2022/06/09 06:51:17;;;;;;;14.90;11.73;;;;;;;21.35;60.51;94018.81;4172552;28;20554;-55
2022/06/09 06:53:18;;;;;;;16.17;12.35;;;;;;;21.51;60.46;94009.25;4163623;28;20055;-58
2022/06/09 06:55:21;;;;;;;15.35;11.85;;;;;;;21.57;59.68;94013.56;4168402;28;20053;-56
2022/06/09 06:57:23;;;;;;;16.65;11.73;;;;;;;21.61;58.87;94014.69;4159979;28;20135;-58
2022/06/09 06:59:25;;;;;;;13.95;11.70;;;;;;;21.62;58.97;94011.00;4159776;28;20049;-58
2022/06/09 07:01:26;;;;;;;16.42;12.10;;;;;;;21.67;59.32;94011.06;4172286;28;20049;-57
2022/06/09 07:03:29;;;;;;;14.63;11.63;;;;;;;21.79;59.13;94007.47;4176621;28;20044;-56
2022/06/09 07:05:36;;;;;;;13.68;11.90;;;;;;;21.88;58.80;94016.69;4174580;28;20088;-55
2022/06/09 07:07:39;;;;;;;13.38;11.55;;;;;;;21.94;58.63;94021.03;4175178;28;20060;-60
2022/06/09 07:09:41;;;;;;;14.98;11.85;;;;;;;22.03;58.99;94013.44;4173322;28;20054;-56
2022/06/09 07:11:45;;;;;;;16.83;11.82;;;;;;;22.11;57.52;94006.84;4159148;28;20367;-60
2022/06/09 07:13:46;;;;;;;17.50;12.45;;;;;;;21.98;58.24;94011.47;4167432;28;20057;-58
2022/06/09 07:15:49;;;;;;;19.67;14.40;;;;;;;21.46;58.64;94012.59;4162810;28;20049;-59
2022/06/09 07:17:51;;;;;;;15.23;13.57;;;;;;;21.28;59.94;94000.31;4159832;28;20056;-58
2022/06/09 07:19:53;;;;;;;19.98;13.88;;;;;;;20.86;61.05;94011.34;4158392;28;20053;-55
2022/06/09 07:21:55;;;;;;;18.92;13.90;;;;;;;20.41;63.12;94009.44;4159855;28;20054;-58
2022/06/09 07:24:01;;;;;;;17.27;13.52;;;;;;;20.77;62.78;94001.31;4170089;28;20458;-56
2022/06/09 07:26:03;;;;;;;20.27;15.27;;;;;;;20.88;62.11;94000.44;4176020;28;20053;-58
2022/06/09 07:28:06;;;;;;;19.30;14.23;;;;;;;20.98;61.50;94000.63;4174391;28;20053;-54
2022/06/09 07:30:08;;;;;;;18.55;13.68;;;;;;;21.09;61.40;94001.59;4157395;28;20049;-55
2022/06/09 07:32:10;;;;;;;18.00;13.32;;;;;;;21.36;61.18;94003.63;4165312;28;20492;-54
2022/06/09 07:34:12;;;;;;;20.42;12.32;;;;;;;21.65;60.54;93997.16;4175567;28;20056;-57
2022/06/09 07:36:17;;;;;;;17.60;13.18;;;;;;;21.59;59.02;93997.34;4164008;28;20083;-57
2022/06/09 07:38:20;;;;;;;19.45;14.00;;;;;;;21.27;60.12;93990.72;4173334;28;20065;-56
2022/06/09 07:40:22;;;;;;;22.33;14.88;;;;;;;21.12;59.93;94000.31;4175181;28;20128;-57
2022/06/09 07:42:26;;;;;;;38.85;18.67;;;;;;;21.17;60.39;93992.41;4160398;28;20133;-57
2022/06/09 07:44:28;;;;;;;19.98;13.73;;;;;;;21.30;60.91;93983.31;4162048;28;20170;-54
2022/06/09 07:46:30;;;;;;;20.85;13.68;;;;;;;21.34;59.81;93987.91;4163911;28;20548;-55
2022/06/09 07:48:32;;;;;;;24.73;15.40;;;;;;;21.01;60.67;93988.69;4171768;28;20104;-53
2022/06/09 07:50:50;;;;;;;17.73;13.00;;;;;;;21.28;60.96;93984.34;4164062;28;20097;-54
2022/06/09 07:52:52;;;;;;;19.08;14.15;;;;;;;21.48;60.07;93991.06;4172980;28;20151;-57
2022/06/09 07:54:54;;;;;;;22.20;15.07;;;;;;;21.54;59.82;93978.63;4172084;28;20053;-55
2022/06/09 07:57:02;;;;;;;23.75;14.75;;;;;;;21.52;60.73;93980.72;4158799;28;20115;-57
2022/06/09 07:59:06;;;;;;;25.50;14.43;;;;;;;21.67;60.60;93971.06;4159290;28;20065;-56
2022/06/09 08:01:08;;;;;;;20.80;14.30;;;;;;;21.89;59.70;93971.09;4156800;28;20045;-55
2022/06/09 08:03:15;;;;;;;23.20;14.85;;;;;;;22.10;59.59;93963.38;4172182;28;20477;-57
2022/06/09 08:05:19;;;;;;;18.20;13.15;;;;;;;22.24;59.61;93961.16;4161278;28;20156;-55
2022/06/09 08:07:21;;;;;;;18.85;12.95;;;;;;;22.46;58.58;93967.28;4175888;28;20053;-55
2022/06/09 08:09:23;;;;;;;16.00;12.90;;;;;;;22.66;58.30;93968.53;4159389;28;20073;-59
2022/06/09 08:11:28;;;;;;;18.65;12.57;;;;;;;22.83;56.70;93969.25;4158433;28;20131;-57
2022/06/09 08:13:32;;;;;;;16.70;13.38;;;;;;;23.02;56.81;93959.03;4165695;28;20480;-56
2022/06/09 08:15:34;;;;;;;19.13;11.80;;;;;;;23.11;56.52;93967.38;4163795;28;20129;-56
2022/06/09 08:17:38;;;;;;;15.65;11.52;;;;;;;23.18;56.18;93965.28;4171191;28;20061;-56
2022/06/09 08:19:40;;;;;;;22.83;11.73;;;;;;;23.28;56.69;93968.06;4165244;28;20056;-56
2022/06/09 08:21:42;;;;;;;18.08;12.75;;;;;;;23.41;55.09;93964.13;4159154;28;20106;-55
2022/06/09 08:23:55;;;;;;;19.33;12.00;;;;;;;23.51;55.09;93964.22;4158272;28;20108;-57
2022/06/09 08:26:03;;;;;;;17.98;12.80;;;;;;;23.44;53.95;93965.47;4169445;28;20053;-58
2022/06/09 08:28:05;;;;;;;24.45;13.38;;;;;;;23.25;54.30;93949.88;4177324;28;20257;-56
2022/06/09 08:30:09;;;;;;;;;;;;;;;23.13;55.03;93956.44;4172581;28;20053;-56
2022/06/09 08:32:10;;;;;;;18.73;12.35;;;;;;;23.21;55.31;93943.41;4161636;28;19925;-54
2022/06/09 08:34:12;;;;;;;15.70;11.63;;;;;;;23.28;54.29;93941.31;4169178;28;20057;-55
2022/06/09 08:36:14;;;;;;;18.10;12.38;;;;;;;23.42;55.17;93946.22;4168401;28;20064;-58
2022/06/09 08:38:16;;;;;;;18.73;12.32;;;;;;;23.57;54.82;93949.00;4173744;28;20359;-57
2022/06/09 08:40:22;;;;;;;15.00;12.25;;;;;;;23.60;54.63;93953.84;4173974;28;20045;-55
2022/06/09 08:42:41;;;;;;;17.77;13.07;;;;;;;23.78;54.71;93947.28;4162088;28;20058;-57
2022/06/09 08:45:04;;;;;;;17.42;12.90;;;;;;;23.88;54.15;93946.53;4167307;28;20068;-56
2022/06/09 08:47:39;;;;;;;16.27;12.23;;;;;;;23.93;53.29;93943.88;4159417;28;20107;-55
2022/06/09 08:49:40;;;;;;;21.05;12.55;;;;;;;24.00;53.29;93933.72;4171322;28;20787;-55
2022/06/09 08:51:45;;;;;;;15.50;11.52;;;;;;;24.07;53.17;93937.00;4161803;28;20803;-55
2022/06/09 08:53:49;;;;;;;16.55;11.38;;;;;;;24.22;53.38;93938.91;4167550;28;20053;-56
2022/06/09 08:55:54;;;;;;;15.25;12.15;;;;;;;24.21;52.50;93936.50;4166138;28;20084;-58
2022/06/09 08:58:01;;;;;;;19.08;11.68;;;;;;;23.82;53.44;93931.53;4175846;28;20048;-55
2022/06/09 09:00:03;;;;;;;19.95;12.38;;;;;;;23.03;54.66;93939.25;4173943;28;20147;-56
2022/06/09 09:02:23;;;;;;;16.73;11.68;;;;;;;22.76;54.84;93931.28;4166626;28;20045;-56
2022/06/09 09:04:30;;;;;;;17.38;11.70;;;;;;;22.48;56.40;93927.81;4166230;28;20457;-56
2022/06/09 09:07:07;;;;;;;17.83;11.68;;;;;;;22.88;56.45;93923.88;4175079;28;20111;-57
2022/06/09 09:09:23;;;;;;;20.02;11.73;;;;;;;22.98;55.52;93922.38;4174962;28;20118;-54
2022/06/09 09:11:57;;;;;;;15.40;10.88;;;;;;;23.02;54.30;93923.50;4160988;28;20107;-57
2022/06/09 09:14:17;;;;;;;17.42;11.02;;;;;;;23.07;53.93;93916.31;4160632;28;20172;-58
2022/06/09 09:16:54;;;;;;;13.55;10.35;;;;;;;23.05;54.03;93922.97;4157450;28;20351;-56
2022/06/09 09:19:05;;;;;;;13.27;9.77;;;;;;;23.20;53.66;93909.72;4168898;28;20585;-57
2022/06/09 09:21:25;;;;;;;14.57;10.48;;;;;;;22.98;53.61;93911.69;4172975;28;20045;-55
2022/06/09 09:23:54;;;;;;;15.68;9.10;;;;;;;23.14;53.75;93910.75;4161593;28;20119;-58
2022/06/09 09:26:21;;;;;;;14.50;9.88;;;;;;;23.24;53.66;93904.69;4172588;28;20446;-57
2022/06/09 09:28:30;;;;;;;15.05;9.30;;;;;;;23.65;53.18;93899.59;4163117;28;20044;-57
2022/06/09 09:30:47;;;;;;;16.73;9.55;;;;;;;24.06;52.11;93892.56;4167385;28;20168;-56
2022/06/09 09:32:54;;;;;;;16.20;9.35;;;;;;;24.39;51.92;93890.50;4172616;28;20099;-58
2022/06/09 09:34:57;;;;;;;14.95;9.73;;;;;;;24.44;52.43;93890.53;4176239;28;20057;-56
2022/06/09 09:37:12;;;;;;;14.18;9.25;;;;;;;24.33;51.46;93886.22;4163959;28;20104;-56
2022/06/09 09:39:30;;;;;;;11.73;8.70;;;;;;;24.29;51.74;93885.94;4176441;28;20060;-58
2022/06/09 09:41:34;;;;;;;9.93;8.38;;;;;;;24.49;51.03;93881.72;4176190;28;20049;-56
2022/06/09 09:43:39;;;;;;;12.80;9.00;;;;;;;24.55;50.44;93879.88;4166173;28;20490;-56
2022/06/09 09:45:52;;;;;;;11.93;9.40;;;;;;;24.27;49.25;93874.69;4163720;28;20064;-55
2022/06/09 09:47:58;;;;;;;15.98;10.15;;;;;;;24.14;50.02;93869.06;4165610;28;20138;-56